Terminal Aerodrome Forecast
Issued by NWS

Home | Current Version | Previous Version | Text Only | Print | Product List | Glossary On
Versions: 1 2 3 4 5 6 7 8 9 10 11 12 13
000
FTUS42 TJSJ 281700
TAFJSJ
TAF
TJSJ 281729Z 2818/0118 07018G27KT P6SM VCSH SCT025 SCT035 SCT060
     FM282200 09010KT P6SM VCSH SCT025 SCT050
     FM011300 08017KT P6SM FEW025 SCT040=

USA.gov is the U.S. government's official web portal to all federal, state and local government web resources and services.